sensor_id;sensor_type;location;lat;lon;timestamp;P1;durP1;ratioP1;P2;durP2;ratioP2
29662;SDS011;16578;53.266;7.920;2022-12-29T00:01:52;3.88;;;2.70;;
29662;SDS011;16578;53.266;7.920;2022-12-29T00:04:18;3.40;;;2.92;;
29662;SDS011;16578;53.266;7.920;2022-12-29T00:06:44;2.60;;;2.40;;
29662;SDS011;16578;53.266;7.920;2022-12-29T00:09:13;3.35;;;2.70;;
29662;SDS011;16578;53.266;7.920;2022-12-29T00:11:40;3.58;;;2.53;;
29662;SDS011;16578;53.266;7.920;2022-12-29T00:14:05;2.60;;;2.40;;
29662;SDS011;16578;53.266;7.920;2022-12-29T00:16:52;2.95;;;2.65;;
29662;SDS011;16578;53.266;7.920;2022-12-29T00:19:17;4.30;;;2.90;;
29662;SDS011;16578;53.266;7.920;2022-12-29T00:22:02;3.20;;;2.53;;
29662;SDS011;16578;53.266;7.920;2022-12-29T00:24:46;4.30;;;2.92;;
29662;SDS011;16578;53.266;7.920;2022-12-29T00:27:30;3.05;;;2.70;;
29662;SDS011;16578;53.266;7.920;2022-12-29T00:30:16;2.85;;;2.38;;
29662;SDS011;16578;53.266;7.920;2022-12-29T00:33:13;2.78;;;2.58;;
29662;SDS011;16578;53.266;7.920;2022-12-29T00:36:01;2.95;;;2.50;;
29662;SDS011;16578;53.266;7.920;2022-12-29T00:38:37;4.22;;;2.70;;
29662;SDS011;16578;53.266;7.920;2022-12-29T00:41:24;9.70;;;2.72;;
29662;SDS011;16578;53.266;7.920;2022-12-29T00:44:08;2.85;;;2.65;;
29662;SDS011;16578;53.266;7.920;2022-12-29T00:46:36;1.70;;;1.60;;
29662;SDS011;16578;53.266;7.920;2022-12-29T00:49:03;2.70;;;2.50;;
29662;SDS011;16578;53.266;7.920;2022-12-29T00:51:48;3.35;;;2.70;;
29662;SDS011;16578;53.266;7.920;2022-12-29T00:54:15;3.13;;;2.40;;
29662;SDS011;16578;53.266;7.920;2022-12-29T00:56:40;3.10;;;2.78;;
29662;SDS011;16578;53.266;7.920;2022-12-29T00:59:07;3.13;;;2.83;;
29662;SDS011;16578;53.266;7.920;2022-12-29T01:01:34;3.00;;;2.70;;
29662;SDS011;16578;53.266;7.920;2022-12-29T01:04:01;4.28;;;2.72;;
29662;SDS011;16578;53.266;7.920;2022-12-29T01:06:26;3.35;;;3.15;;
29662;SDS011;16578;53.266;7.920;2022-12-29T01:08:52;2.85;;;2.65;;
29662;SDS011;16578;53.266;7.920;2022-12-29T01:11:36;3.15;;;2.85;;
29662;SDS011;16578;53.266;7.920;2022-12-29T01:14:03;3.20;;;2.72;;
29662;SDS011;16578;53.266;7.920;2022-12-29T01:16:29;2.97;;;2.70;;
29662;SDS011;16578;53.266;7.920;2022-12-29T01:18:55;4.85;;;3.10;;
29662;SDS011;16578;53.266;7.920;2022-12-29T01:21:20;3.38;;;3.08;;
29662;SDS011;16578;53.266;7.920;2022-12-29T01:23:46;3.97;;;3.30;;
29662;SDS011;16578;53.266;7.920;2022-12-29T01:26:12;3.25;;;2.95;;
29662;SDS011;16578;53.266;7.920;2022-12-29T01:28:39;4.25;;;2.95;;
29662;SDS011;16578;53.266;7.920;2022-12-29T01:31:05;3.42;;;3.13;;
29662;SDS011;16578;53.266;7.920;2022-12-29T01:33:31;3.15;;;2.85;;
29662;SDS011;16578;53.266;7.920;2022-12-29T01:36:04;4.18;;;3.38;;
29662;SDS011;16578;53.266;7.920;2022-12-29T01:38:32;3.30;;;3.00;;
29662;SDS011;16578;53.266;7.920;2022-12-29T01:40:59;3.40;;;3.10;;
29662;SDS011;16578;53.266;7.920;2022-12-29T01:48:52;3.22;;;2.92;;
29662;SDS011;16578;53.266;7.920;2022-12-29T01:51:27;3.20;;;2.90;;
29662;SDS011;16578;53.266;7.920;2022-12-29T01:53:54;20.63;;;3.15;;
29662;SDS011;16578;53.266;7.920;2022-12-29T01:56:23;3.38;;;2.08;;
29662;SDS011;16578;53.266;7.920;2022-12-29T01:58:50;2.65;;;2.42;;
29662;SDS011;16578;53.266;7.920;2022-12-29T02:01:26;2.25;;;2.05;;
29662;SDS011;16578;53.266;7.920;2022-12-29T02:03:52;2.30;;;2.10;;
29662;SDS011;16578;53.266;7.920;2022-12-29T02:08:47;2.60;;;2.40;;
29662;SDS011;16578;53.266;7.920;2022-12-29T02:11:15;2.40;;;2.20;;
29662;SDS011;16578;53.266;7.920;2022-12-29T02:13:42;2.42;;;2.22;;
29662;SDS011;16578;53.266;7.920;2022-12-29T02:36:06;3.30;;;2.30;;
29662;SDS011;16578;53.266;7.920;2022-12-29T02:41:31;3.08;;;2.15;;
29662;SDS011;16578;53.266;7.920;2022-12-29T02:46:44;3.08;;;2.05;;
29662;SDS011;16578;53.266;7.920;2022-12-29T02:49:30;1.80;;;1.65;;
29662;SDS011;16578;53.266;7.920;2022-12-29T02:52:08;3.67;;;2.22;;
29662;SDS011;16578;53.266;7.920;2022-12-29T02:54:39;2.83;;;2.10;;
29662;SDS011;16578;53.266;7.920;2022-12-29T02:57:10;1.67;;;1.58;;
29662;SDS011;16578;53.266;7.920;2022-12-29T02:59:36;1.77;;;1.50;;
29662;SDS011;16578;53.266;7.920;2022-12-29T03:05:00;1.77;;;1.60;;
29662;SDS011;16578;53.266;7.920;2022-12-29T03:10:18;2.47;;;1.92;;
29662;SDS011;16578;53.266;7.920;2022-12-29T03:16:07;2.03;;;1.80;;
29662;SDS011;16578;53.266;7.920;2022-12-29T03:19:02;2.25;;;1.70;;
29662;SDS011;16578;53.266;7.920;2022-12-29T03:21:46;2.38;;;1.75;;
29662;SDS011;16578;53.266;7.920;2022-12-29T03:24:52;1.95;;;1.58;;
29662;SDS011;16578;53.266;7.920;2022-12-29T03:27:22;3.58;;;1.83;;
29662;SDS011;16578;53.266;7.920;2022-12-29T03:30:03;1.92;;;1.70;;
29662;SDS011;16578;53.266;7.920;2022-12-29T03:32:34;2.00;;;1.70;;
29662;SDS011;16578;53.266;7.920;2022-12-29T03:35:05;1.58;;;1.45;;
29662;SDS011;16578;53.266;7.920;2022-12-29T03:37:35;1.73;;;1.48;;
29662;SDS011;16578;53.266;7.920;2022-12-29T03:40:06;4.43;;;1.35;;
29662;SDS011;16578;53.266;7.920;2022-12-29T03:42:33;3.08;;;1.60;;
29662;SDS011;16578;53.266;7.920;2022-12-29T03:45:00;0.93;;;0.93;;
29662;SDS011;16578;53.266;7.920;2022-12-29T03:47:26;1.23;;;1.13;;
29662;SDS011;16578;53.266;7.920;2022-12-29T03:49:52;1.00;;;0.90;;
29662;SDS011;16578;53.266;7.920;2022-12-29T03:52:17;1.35;;;1.00;;
29662;SDS011;16578;53.266;7.920;2022-12-29T03:54:43;1.10;;;0.93;;
29662;SDS011;16578;53.266;7.920;2022-12-29T03:57:10;1.77;;;1.00;;
29662;SDS011;16578;53.266;7.920;2022-12-29T03:59:36;1.00;;;0.90;;
29662;SDS011;16578;53.266;7.920;2022-12-29T04:02:01;1.20;;;0.95;;
29662;SDS011;16578;53.266;7.920;2022-12-29T04:04:27;0.75;;;0.75;;
29662;SDS011;16578;53.266;7.920;2022-12-29T04:06:53;0.80;;;0.80;;
29662;SDS011;16578;53.266;7.920;2022-12-29T04:09:19;1.10;;;0.80;;
29662;SDS011;16578;53.266;7.920;2022-12-29T04:11:44;1.10;;;0.80;;
29662;SDS011;16578;53.266;7.920;2022-12-29T04:14:10;1.38;;;1.00;;
29662;SDS011;16578;53.266;7.920;2022-12-29T04:16:35;12.68;;;1.00;;
29662;SDS011;16578;53.266;7.920;2022-12-29T04:19:03;0.70;;;0.70;;
29662;SDS011;16578;53.266;7.920;2022-12-29T04:21:30;3.50;;;1.10;;
29662;SDS011;16578;53.266;7.920;2022-12-29T04:23:55;0.80;;;0.80;;
29662;SDS011;16578;53.266;7.920;2022-12-29T04:26:21;1.08;;;0.93;;
29662;SDS011;16578;53.266;7.920;2022-12-29T04:28:46;1.20;;;1.00;;
29662;SDS011;16578;53.266;7.920;2022-12-29T04:31:12;0.90;;;0.90;;
29662;SDS011;16578;53.266;7.920;2022-12-29T04:33:37;1.25;;;1.10;;
29662;SDS011;16578;53.266;7.920;2022-12-29T04:36:03;1.55;;;0.90;;
29662;SDS011;16578;53.266;7.920;2022-12-29T04:38:29;1.65;;;1.10;;
29662;SDS011;16578;53.266;7.920;2022-12-29T04:40:55;1.13;;;1.02;;
29662;SDS011;16578;53.266;7.920;2022-12-29T04:43:20;1.20;;;0.95;;
29662;SDS011;16578;53.266;7.920;2022-12-29T04:45:47;1.23;;;1.00;;
29662;SDS011;16578;53.266;7.920;2022-12-29T04:48:13;1.23;;;1.08;;
29662;SDS011;16578;53.266;7.920;2022-12-29T04:50:40;2.05;;;1.10;;
29662;SDS011;16578;53.266;7.920;2022-12-29T04:53:06;1.13;;;1.00;;
29662;SDS011;16578;53.266;7.920;2022-12-29T04:55:31;1.70;;;1.10;;
29662;SDS011;16578;53.266;7.920;2022-12-29T04:57:57;2.22;;;1.35;;
29662;SDS011;16578;53.266;7.920;2022-12-29T05:00:23;2.17;;;1.25;;
29662;SDS011;16578;53.266;7.920;2022-12-29T05:02:48;2.42;;;1.08;;
29662;SDS011;16578;53.266;7.920;2022-12-29T05:05:14;1.25;;;1.10;;
29662;SDS011;16578;53.266;7.920;2022-12-29T05:07:40;1.20;;;0.77;;
29662;SDS011;16578;53.266;7.920;2022-12-29T05:10:06;1.55;;;1.10;;
29662;SDS011;16578;53.266;7.920;2022-12-29T05:12:33;1.75;;;1.20;;
29662;SDS011;16578;53.266;7.920;2022-12-29T05:14:59;1.30;;;1.20;;
29662;SDS011;16578;53.266;7.920;2022-12-29T05:17:25;2.08;;;1.30;;
29662;SDS011;16578;53.266;7.920;2022-12-29T05:19:51;1.98;;;1.38;;
29662;SDS011;16578;53.266;7.920;2022-12-29T05:22:17;2.50;;;0.90;;
29662;SDS011;16578;53.266;7.920;2022-12-29T05:24:42;1.27;;;0.95;;
29662;SDS011;16578;53.266;7.920;2022-12-29T05:27:08;2.05;;;0.98;;
29662;SDS011;16578;53.266;7.920;2022-12-29T05:29:34;1.25;;;0.80;;
29662;SDS011;16578;53.266;7.920;2022-12-29T05:31:59;1.40;;;0.85;;
29662;SDS011;16578;53.266;7.920;2022-12-29T05:34:25;1.77;;;0.90;;
29662;SDS011;16578;53.266;7.920;2022-12-29T05:36:50;3.45;;;1.20;;
29662;SDS011;16578;53.266;7.920;2022-12-29T05:39:16;1.60;;;0.90;;
29662;SDS011;16578;53.266;7.920;2022-12-29T05:41:42;2.58;;;1.23;;
29662;SDS011;16578;53.266;7.920;2022-12-29T05:44:07;2.60;;;1.15;;
29662;SDS011;16578;53.266;7.920;2022-12-29T05:46:33;2.38;;;1.30;;
29662;SDS011;16578;53.266;7.920;2022-12-29T05:48:58;3.05;;;1.20;;
29662;SDS011;16578;53.266;7.920;2022-12-29T05:51:24;3.38;;;1.20;;
29662;SDS011;16578;53.266;7.920;2022-12-29T05:53:49;3.22;;;1.10;;
29662;SDS011;16578;53.266;7.920;2022-12-29T05:56:15;1.67;;;0.90;;
29662;SDS011;16578;53.266;7.920;2022-12-29T05:58:40;2.85;;;1.10;;
29662;SDS011;16578;53.266;7.920;2022-12-29T06:01:06;2.20;;;1.23;;
29662;SDS011;16578;53.266;7.920;2022-12-29T06:03:32;3.78;;;1.23;;
29662;SDS011;16578;53.266;7.920;2022-12-29T06:05:57;2.90;;;1.20;;
29662;SDS011;16578;53.266;7.920;2022-12-29T06:08:23;1.60;;;1.20;;
29662;SDS011;16578;53.266;7.920;2022-12-29T06:10:49;1.40;;;1.15;;
29662;SDS011;16578;53.266;7.920;2022-12-29T06:13:14;1.73;;;1.00;;
29662;SDS011;16578;53.266;7.920;2022-12-29T06:15:40;1.42;;;1.08;;
29662;SDS011;16578;53.266;7.920;2022-12-29T06:18:05;2.90;;;1.20;;
29662;SDS011;16578;53.266;7.920;2022-12-29T06:20:31;3.20;;;1.13;;
29662;SDS011;16578;53.266;7.920;2022-12-29T06:22:57;3.70;;;1.23;;
29662;SDS011;16578;53.266;7.920;2022-12-29T06:25:22;2.63;;;1.23;;
29662;SDS011;16578;53.266;7.920;2022-12-29T06:27:48;3.53;;;1.30;;
29662;SDS011;16578;53.266;7.920;2022-12-29T06:30:13;2.05;;;1.08;;
29662;SDS011;16578;53.266;7.920;2022-12-29T06:32:39;3.88;;;1.13;;
29662;SDS011;16578;53.266;7.920;2022-12-29T06:35:05;3.60;;;1.30;;
29662;SDS011;16578;53.266;7.920;2022-12-29T06:37:31;1.17;;;1.00;;
29662;SDS011;16578;53.266;7.920;2022-12-29T06:39:57;3.60;;;1.27;;
29662;SDS011;16578;53.266;7.920;2022-12-29T06:42:23;3.72;;;1.40;;
29662;SDS011;16578;53.266;7.920;2022-12-29T06:44:48;3.42;;;1.63;;
29662;SDS011;16578;53.266;7.920;2022-12-29T06:47:14;4.25;;;1.45;;
29662;SDS011;16578;53.266;7.920;2022-12-29T06:49:40;2.40;;;1.23;;
29662;SDS011;16578;53.266;7.920;2022-12-29T06:52:06;5.13;;;1.20;;
29662;SDS011;16578;53.266;7.920;2022-12-29T06:54:32;3.22;;;1.13;;
29662;SDS011;16578;53.266;7.920;2022-12-29T06:56:57;3.28;;;1.40;;
29662;SDS011;16578;53.266;7.920;2022-12-29T06:59:23;2.75;;;1.10;;
29662;SDS011;16578;53.266;7.920;2022-12-29T07:01:49;3.50;;;1.50;;
29662;SDS011;16578;53.266;7.920;2022-12-29T07:04:15;4.18;;;1.35;;
29662;SDS011;16578;53.266;7.920;2022-12-29T07:06:41;3.10;;;1.58;;
29662;SDS011;16578;53.266;7.920;2022-12-29T07:09:07;3.17;;;1.30;;
29662;SDS011;16578;53.266;7.920;2022-12-29T07:11:33;3.35;;;1.10;;
29662;SDS011;16578;53.266;7.920;2022-12-29T07:13:59;4.55;;;1.38;;
29662;SDS011;16578;53.266;7.920;2022-12-29T07:16:25;2.35;;;1.27;;
29662;SDS011;16578;53.266;7.920;2022-12-29T07:18:50;2.22;;;1.20;;
29662;SDS011;16578;53.266;7.920;2022-12-29T07:21:17;4.35;;;1.67;;
29662;SDS011;16578;53.266;7.920;2022-12-29T07:23:43;3.50;;;1.60;;
29662;SDS011;16578;53.266;7.920;2022-12-29T07:26:10;3.80;;;1.30;;
29662;SDS011;16578;53.266;7.920;2022-12-29T07:31:04;2.38;;;1.25;;
29662;SDS011;16578;53.266;7.920;2022-12-29T07:33:30;5.10;;;1.50;;
29662;SDS011;16578;53.266;7.920;2022-12-29T07:35:56;5.00;;;1.50;;
29662;SDS011;16578;53.266;7.920;2022-12-29T07:38:22;3.90;;;1.40;;
29662;SDS011;16578;53.266;7.920;2022-12-29T07:40:48;5.82;;;1.73;;
29662;SDS011;16578;53.266;7.920;2022-12-29T07:43:13;3.70;;;1.50;;
29662;SDS011;16578;53.266;7.920;2022-12-29T07:45:39;5.63;;;1.50;;
29662;SDS011;16578;53.266;7.920;2022-12-29T07:48:05;2.55;;;1.30;;
29662;SDS011;16578;53.266;7.920;2022-12-29T07:50:34;5.28;;;1.45;;
29662;SDS011;16578;53.266;7.920;2022-12-29T07:53:00;6.68;;;1.58;;
29662;SDS011;16578;53.266;7.920;2022-12-29T07:55:26;6.63;;;1.77;;
29662;SDS011;16578;53.266;7.920;2022-12-29T07:57:55;5.38;;;1.77;;
29662;SDS011;16578;53.266;7.920;2022-12-29T08:00:21;4.50;;;1.63;;
29662;SDS011;16578;53.266;7.920;2022-12-29T08:02:47;3.40;;;1.55;;
29662;SDS011;16578;53.266;7.920;2022-12-29T08:05:13;7.90;;;1.60;;
29662;SDS011;16578;53.266;7.920;2022-12-29T08:07:41;5.45;;;1.90;;
29662;SDS011;16578;53.266;7.920;2022-12-29T08:10:09;9.52;;;1.90;;
29662;SDS011;16578;53.266;7.920;2022-12-29T08:12:35;4.30;;;1.83;;
29662;SDS011;16578;53.266;7.920;2022-12-29T08:15:02;5.20;;;2.08;;
29662;SDS011;16578;53.266;7.920;2022-12-29T08:17:28;7.95;;;2.08;;
29662;SDS011;16578;53.266;7.920;2022-12-29T08:19:54;5.13;;;1.75;;
29662;SDS011;16578;53.266;7.920;2022-12-29T08:22:19;6.00;;;1.55;;
29662;SDS011;16578;53.266;7.920;2022-12-29T08:24:45;9.30;;;1.98;;
29662;SDS011;16578;53.266;7.920;2022-12-29T08:27:10;8.02;;;1.98;;
29662;SDS011;16578;53.266;7.920;2022-12-29T08:29:36;5.60;;;2.00;;
29662;SDS011;16578;53.266;7.920;2022-12-29T08:32:02;6.40;;;2.40;;
29662;SDS011;16578;53.266;7.920;2022-12-29T08:34:28;14.98;;;2.28;;
29662;SDS011;16578;53.266;7.920;2022-12-29T08:36:56;8.52;;;2.30;;
29662;SDS011;16578;53.266;7.920;2022-12-29T08:39:21;3.70;;;1.50;;
29662;SDS011;16578;53.266;7.920;2022-12-29T08:41:47;9.15;;;2.13;;
29662;SDS011;16578;53.266;7.920;2022-12-29T08:44:12;4.95;;;1.50;;
29662;SDS011;16578;53.266;7.920;2022-12-29T08:46:38;8.13;;;2.15;;
29662;SDS011;16578;53.266;7.920;2022-12-29T08:49:03;15.13;;;2.67;;
29662;SDS011;16578;53.266;7.920;2022-12-29T08:51:29;6.57;;;2.25;;
29662;SDS011;16578;53.266;7.920;2022-12-29T08:53:55;5.68;;;1.92;;
29662;SDS011;16578;53.266;7.920;2022-12-29T08:56:20;7.20;;;1.88;;
29662;SDS011;16578;53.266;7.920;2022-12-29T08:58:48;7.50;;;2.25;;
29662;SDS011;16578;53.266;7.920;2022-12-29T09:01:14;4.88;;;1.98;;
29662;SDS011;16578;53.266;7.920;2022-12-29T09:03:40;7.82;;;2.47;;
29662;SDS011;16578;53.266;7.920;2022-12-29T09:06:05;6.75;;;2.05;;
29662;SDS011;16578;53.266;7.920;2022-12-29T09:08:31;8.32;;;2.40;;
29662;SDS011;16578;53.266;7.920;2022-12-29T09:11:05;8.57;;;2.55;;
29662;SDS011;16578;53.266;7.920;2022-12-29T09:13:35;6.47;;;1.88;;
29662;SDS011;16578;53.266;7.920;2022-12-29T09:16:00;5.40;;;1.77;;
29662;SDS011;16578;53.266;7.920;2022-12-29T09:18:26;6.80;;;2.00;;
29662;SDS011;16578;53.266;7.920;2022-12-29T09:20:55;7.88;;;2.22;;
29662;SDS011;16578;53.266;7.920;2022-12-29T09:23:25;8.40;;;2.17;;
29662;SDS011;16578;53.266;7.920;2022-12-29T09:25:51;6.28;;;2.13;;
29662;SDS011;16578;53.266;7.920;2022-12-29T09:28:17;6.63;;;2.00;;
29662;SDS011;16578;53.266;7.920;2022-12-29T09:30:43;6.53;;;2.15;;
29662;SDS011;16578;53.266;7.920;2022-12-29T09:33:09;5.10;;;2.00;;
29662;SDS011;16578;53.266;7.920;2022-12-29T09:35:34;11.30;;;2.67;;
29662;SDS011;16578;53.266;7.920;2022-12-29T09:38:00;6.22;;;2.25;;
29662;SDS011;16578;53.266;7.920;2022-12-29T09:40:30;8.00;;;2.13;;
29662;SDS011;16578;53.266;7.920;2022-12-29T09:45:47;9.25;;;2.45;;
29662;SDS011;16578;53.266;7.920;2022-12-29T09:48:20;6.65;;;2.28;;
29662;SDS011;16578;53.266;7.920;2022-12-29T09:50:51;8.77;;;2.72;;
29662;SDS011;16578;53.266;7.920;2022-12-29T09:53:26;10.35;;;2.58;;
29662;SDS011;16578;53.266;7.920;2022-12-29T09:55:59;7.18;;;1.98;;
29662;SDS011;16578;53.266;7.920;2022-12-29T09:58:35;8.23;;;2.30;;
29662;SDS011;16578;53.266;7.920;2022-12-29T10:01:36;7.60;;;2.30;;
29662;SDS011;16578;53.266;7.920;2022-12-29T10:04:07;5.80;;;2.20;;
29662;SDS011;16578;53.266;7.920;2022-12-29T10:25:49;6.97;;;2.10;;
29662;SDS011;16578;53.266;7.920;2022-12-29T10:28:21;5.55;;;1.92;;
29662;SDS011;16578;53.266;7.920;2022-12-29T10:30:49;5.90;;;2.08;;
29662;SDS011;16578;53.266;7.920;2022-12-29T10:33:21;8.10;;;2.63;;
29662;SDS011;16578;53.266;7.920;2022-12-29T10:35:51;11.13;;;2.22;;
29662;SDS011;16578;53.266;7.920;2022-12-29T10:43:45;4.57;;;1.70;;
29662;SDS011;16578;53.266;7.920;2022-12-29T10:46:30;6.63;;;2.10;;
29662;SDS011;16578;53.266;7.920;2022-12-29T10:48:59;7.30;;;2.45;;
29662;SDS011;16578;53.266;7.920;2022-12-29T10:51:34;6.50;;;2.20;;
29662;SDS011;16578;53.266;7.920;2022-12-29T10:59:12;10.80;;;2.60;;
29662;SDS011;16578;53.266;7.920;2022-12-29T11:07:07;9.85;;;2.50;;
29662;SDS011;16578;53.266;7.920;2022-12-29T11:09:34;7.57;;;1.92;;
29662;SDS011;16578;53.266;7.920;2022-12-29T11:12:21;7.30;;;2.22;;
29662;SDS011;16578;53.266;7.920;2022-12-29T11:14:47;5.25;;;1.73;;
29662;SDS011;16578;53.266;7.920;2022-12-29T11:17:25;13.30;;;2.22;;
29662;SDS011;16578;53.266;7.920;2022-12-29T11:19:51;9.57;;;2.22;;
29662;SDS011;16578;53.266;7.920;2022-12-29T11:22:27;6.10;;;2.00;;
29662;SDS011;16578;53.266;7.920;2022-12-29T11:24:54;7.38;;;1.95;;
29662;SDS011;16578;53.266;7.920;2022-12-29T11:27:29;7.22;;;2.60;;
29662;SDS011;16578;53.266;7.920;2022-12-29T11:29:55;12.55;;;2.33;;
29662;SDS011;16578;53.266;7.920;2022-12-29T11:32:22;9.93;;;3.15;;
29662;SDS011;16578;53.266;7.920;2022-12-29T11:34:49;8.07;;;2.30;;
29662;SDS011;16578;53.266;7.920;2022-12-29T11:40:15;6.00;;;2.13;;
29662;SDS011;16578;53.266;7.920;2022-12-29T11:42:47;5.88;;;1.70;;
29662;SDS011;16578;53.266;7.920;2022-12-29T11:45:33;3.95;;;1.92;;
29662;SDS011;16578;53.266;7.920;2022-12-29T11:48:07;6.00;;;1.65;;
29662;SDS011;16578;53.266;7.920;2022-12-29T11:50:37;6.97;;;2.25;;
29662;SDS011;16578;53.266;7.920;2022-12-29T11:53:06;4.20;;;1.55;;
29662;SDS011;16578;53.266;7.920;2022-12-29T11:55:50;11.38;;;2.10;;
29662;SDS011;16578;53.266;7.920;2022-12-29T11:58:18;5.20;;;2.05;;
29662;SDS011;16578;53.266;7.920;2022-12-29T12:00:43;6.63;;;1.92;;
29662;SDS011;16578;53.266;7.920;2022-12-29T12:03:15;5.50;;;1.85;;
29662;SDS011;16578;53.266;7.920;2022-12-29T12:05:49;3.30;;;1.40;;
29662;SDS011;16578;53.266;7.920;2022-12-29T12:11:11;5.93;;;1.80;;
29662;SDS011;16578;53.266;7.920;2022-12-29T12:13:47;5.57;;;1.80;;
29662;SDS011;16578;53.266;7.920;2022-12-29T12:16:24;5.25;;;1.90;;
29662;SDS011;16578;53.266;7.920;2022-12-29T12:19:06;7.80;;;2.10;;
29662;SDS011;16578;53.266;7.920;2022-12-29T12:21:41;3.90;;;1.75;;
29662;SDS011;16578;53.266;7.920;2022-12-29T12:26:55;6.57;;;1.60;;
29662;SDS011;16578;53.266;7.920;2022-12-29T12:29:34;4.43;;;1.60;;
29662;SDS011;16578;53.266;7.920;2022-12-29T12:32:44;4.90;;;1.80;;
29662;SDS011;16578;53.266;7.920;2022-12-29T12:35:19;8.63;;;3.72;;
29662;SDS011;16578;53.266;7.920;2022-12-29T12:38:27;9.20;;;2.50;;
29662;SDS011;16578;53.266;7.920;2022-12-29T12:41:12;4.72;;;1.92;;
29662;SDS011;16578;53.266;7.920;2022-12-29T12:44:00;6.90;;;2.40;;
29662;SDS011;16578;53.266;7.920;2022-12-29T12:46:48;7.55;;;2.35;;
29662;SDS011;16578;53.266;7.920;2022-12-29T12:52:11;6.72;;;2.00;;
29662;SDS011;16578;53.266;7.920;2022-12-29T13:00:29;4.97;;;1.92;;
29662;SDS011;16578;53.266;7.920;2022-12-29T13:03:19;5.57;;;2.17;;
29662;SDS011;16578;53.266;7.920;2022-12-29T13:08:37;8.27;;;1.90;;
29662;SDS011;16578;53.266;7.920;2022-12-29T13:14:22;7.88;;;1.90;;
29662;SDS011;16578;53.266;7.920;2022-12-29T13:17:14;6.10;;;2.50;;
29662;SDS011;16578;53.266;7.920;2022-12-29T13:19:56;10.35;;;2.63;;
29662;SDS011;16578;53.266;7.920;2022-12-29T13:25:54;10.68;;;2.65;;
29662;SDS011;16578;53.266;7.920;2022-12-29T13:34:09;11.43;;;3.05;;
29662;SDS011;16578;53.266;7.920;2022-12-29T13:36:59;8.85;;;2.38;;
29662;SDS011;16578;53.266;7.920;2022-12-29T13:39:38;11.23;;;2.53;;
29662;SDS011;16578;53.266;7.920;2022-12-29T13:42:07;11.43;;;3.20;;
29662;SDS011;16578;53.266;7.920;2022-12-29T13:44:39;9.93;;;3.42;;
29662;SDS011;16578;53.266;7.920;2022-12-29T13:49:46;13.35;;;3.40;;
29662;SDS011;16578;53.266;7.920;2022-12-29T13:52:16;14.15;;;4.57;;
29662;SDS011;16578;53.266;7.920;2022-12-29T14:00:46;11.32;;;2.88;;
29662;SDS011;16578;53.266;7.920;2022-12-29T14:06:17;8.05;;;2.85;;
29662;SDS011;16578;53.266;7.920;2022-12-29T14:08:44;11.95;;;4.30;;
29662;SDS011;16578;53.266;7.920;2022-12-29T14:11:11;15.88;;;4.32;;
29662;SDS011;16578;53.266;7.920;2022-12-29T14:13:40;14.57;;;4.53;;
29662;SDS011;16578;53.266;7.920;2022-12-29T14:16:10;13.88;;;6.95;;
29662;SDS011;16578;53.266;7.920;2022-12-29T14:18:50;7.10;;;3.63;;
29662;SDS011;16578;53.266;7.920;2022-12-29T14:21:19;9.57;;;2.97;;
29662;SDS011;16578;53.266;7.920;2022-12-29T14:23:48;8.35;;;3.03;;
29662;SDS011;16578;53.266;7.920;2022-12-29T14:28:56;8.50;;;2.75;;
29662;SDS011;16578;53.266;7.920;2022-12-29T14:31:40;7.80;;;3.08;;
29662;SDS011;16578;53.266;7.920;2022-12-29T14:36:38;11.20;;;3.55;;
29662;SDS011;16578;53.266;7.920;2022-12-29T14:49:55;13.82;;;3.53;;
29662;SDS011;16578;53.266;7.920;2022-12-29T14:52:52;11.73;;;3.00;;
29662;SDS011;16578;53.266;7.920;2022-12-29T14:55:36;14.10;;;3.33;;
29662;SDS011;16578;53.266;7.920;2022-12-29T15:00:47;10.23;;;2.67;;
29662;SDS011;16578;53.266;7.920;2022-12-29T15:05:51;11.60;;;2.75;;
29662;SDS011;16578;53.266;7.920;2022-12-29T15:08:20;15.13;;;3.83;;
29662;SDS011;16578;53.266;7.920;2022-12-29T15:10:53;14.07;;;3.20;;
29662;SDS011;16578;53.266;7.920;2022-12-29T15:13:23;17.98;;;3.80;;
29662;SDS011;16578;53.266;7.920;2022-12-29T15:15:57;9.50;;;2.50;;
29662;SDS011;16578;53.266;7.920;2022-12-29T15:18:24;12.55;;;2.95;;
29662;SDS011;16578;53.266;7.920;2022-12-29T15:23:18;6.28;;;2.45;;
29662;SDS011;16578;53.266;7.920;2022-12-29T15:25:46;10.57;;;2.88;;
29662;SDS011;16578;53.266;7.920;2022-12-29T15:28:19;10.52;;;3.30;;
29662;SDS011;16578;53.266;7.920;2022-12-29T15:30:55;8.95;;;3.10;;
29662;SDS011;16578;53.266;7.920;2022-12-29T15:33:27;10.75;;;4.10;;
29662;SDS011;16578;53.266;7.920;2022-12-29T15:35:54;12.15;;;3.38;;
29662;SDS011;16578;53.266;7.920;2022-12-29T15:38:22;9.32;;;3.25;;
29662;SDS011;16578;53.266;7.920;2022-12-29T15:40:53;12.10;;;3.55;;
29662;SDS011;16578;53.266;7.920;2022-12-29T15:45:54;13.52;;;2.90;;
29662;SDS011;16578;53.266;7.920;2022-12-29T15:48:21;10.13;;;3.05;;
29662;SDS011;16578;53.266;7.920;2022-12-29T15:53:19;8.63;;;2.88;;
29662;SDS011;16578;53.266;7.920;2022-12-29T15:55:53;11.85;;;3.38;;
29662;SDS011;16578;53.266;7.920;2022-12-29T15:58:24;11.38;;;3.40;;
29662;SDS011;16578;53.266;7.920;2022-12-29T16:00:55;8.32;;;2.40;;
29662;SDS011;16578;53.266;7.920;2022-12-29T16:03:24;7.05;;;2.28;;
29662;SDS011;16578;53.266;7.920;2022-12-29T16:05:52;5.53;;;2.08;;
29662;SDS011;16578;53.266;7.920;2022-12-29T16:08:32;10.60;;;2.90;;
29662;SDS011;16578;53.266;7.920;2022-12-29T16:11:47;7.63;;;2.58;;
29662;SDS011;16578;53.266;7.920;2022-12-29T16:14:01;5.78;;;1.85;;
29662;SDS011;16578;53.266;7.920;2022-12-29T16:16:31;10.45;;;2.80;;
29662;SDS011;16578;53.266;7.920;2022-12-29T16:19:08;9.07;;;2.88;;
29662;SDS011;16578;53.266;7.920;2022-12-29T16:21:58;6.88;;;2.53;;
29662;SDS011;16578;53.266;7.920;2022-12-29T16:24:26;7.47;;;2.45;;
29662;SDS011;16578;53.266;7.920;2022-12-29T16:27:02;9.52;;;3.17;;
29662;SDS011;16578;53.266;7.920;2022-12-29T16:29:33;12.00;;;3.10;;
29662;SDS011;16578;53.266;7.920;2022-12-29T16:32:01;7.97;;;3.13;;
29662;SDS011;16578;53.266;7.920;2022-12-29T16:34:32;15.63;;;4.00;;
29662;SDS011;16578;53.266;7.920;2022-12-29T16:37:28;9.48;;;3.38;;
29662;SDS011;16578;53.266;7.920;2022-12-29T16:39:56;10.45;;;4.00;;
29662;SDS011;16578;53.266;7.920;2022-12-29T16:42:56;9.02;;;3.08;;
29662;SDS011;16578;53.266;7.920;2022-12-29T16:53:07;11.18;;;3.20;;
29662;SDS011;16578;53.266;7.920;2022-12-29T16:55:46;10.13;;;3.00;;
29662;SDS011;16578;53.266;7.920;2022-12-29T16:58:15;9.35;;;3.13;;
29662;SDS011;16578;53.266;7.920;2022-12-29T17:00:46;10.25;;;2.47;;
29662;SDS011;16578;53.266;7.920;2022-12-29T17:03:12;10.18;;;3.47;;
29662;SDS011;16578;53.266;7.920;2022-12-29T17:05:38;12.20;;;3.65;;
29662;SDS011;16578;53.266;7.920;2022-12-29T17:08:13;8.30;;;2.95;;
29662;SDS011;16578;53.266;7.920;2022-12-29T17:10:51;14.10;;;4.30;;
29662;SDS011;16578;53.266;7.920;2022-12-29T17:13:36;12.45;;;4.22;;
29662;SDS011;16578;53.266;7.920;2022-12-29T17:16:03;11.60;;;3.47;;
29662;SDS011;16578;53.266;7.920;2022-12-29T17:18:31;10.60;;;3.40;;
29662;SDS011;16578;53.266;7.920;2022-12-29T17:20:57;10.10;;;4.13;;
29662;SDS011;16578;53.266;7.920;2022-12-29T17:23:23;12.45;;;3.42;;
29662;SDS011;16578;53.266;7.920;2022-12-29T17:25:48;11.77;;;3.90;;
29662;SDS011;16578;53.266;7.920;2022-12-29T17:30:42;10.98;;;4.03;;
29662;SDS011;16578;53.266;7.920;2022-12-29T17:33:16;10.95;;;3.88;;
29662;SDS011;16578;53.266;7.920;2022-12-29T17:35:43;14.98;;;4.80;;
29662;SDS011;16578;53.266;7.920;2022-12-29T17:38:19;9.77;;;3.85;;
29662;SDS011;16578;53.266;7.920;2022-12-29T17:40:56;12.55;;;5.38;;
29662;SDS011;16578;53.266;7.920;2022-12-29T17:43:23;10.55;;;4.72;;
29662;SDS011;16578;53.266;7.920;2022-12-29T17:45:52;18.27;;;8.57;;
29662;SDS011;16578;53.266;7.920;2022-12-29T17:48:20;19.80;;;9.70;;
29662;SDS011;16578;53.266;7.920;2022-12-29T17:50:46;16.63;;;8.18;;